Unicom:                    122.8

AWOS:                  118.275

Elevation           1458’ MSL

TPA:                   2500’ MSL

06/24:         5003’ L   75’ W

PAPI:       06/Left     24/Left

(Operate lights on unicom freq.)

Traffic Pattern: Left

Beacon: Sunset to Sunrise

Windsock: yes, lighted

Segmented Circle: No

 

Cleveland Center: 126.72/291.65

FSS: Altoona

[Source: ADDS]
METAR
KFKL 200456Z AUTO 11003KT 10SM CLR 18/17 RMK AO2 SLPNO T01780172 402890117 $ =
KFKL 192323Z 2000/2024 18002KT P6SM SKC FM201400 16005KT P6SM BKN200
TAF
KFKL 192323Z 2000/2024 18002KT P6SM SKC FM201400 16005KT P6SM BKN200 =
[Source: ADDS]
METAR
KDUJ 200453Z AUTO 00000KT 10SM BKN085 19/14 A3013 RMK AO2 SLP190 T01940139 402830133 =
KDUJ 192323Z 2000/2024 18002KT P6SM SKC FM201400 16004KT P6SM BKN080
TAF
KDUJ 192323Z 2000/2024 18002KT P6SM SKC FM201400 16004KT P6SM BKN080 =

Nearby Overnight Accommodations.

The Park Inn by Radisson

45 Holiday Inn Rd

Clarion, PA 16214

Phone # (814) 226-8850

Park Inn by Radisson

45 Holiday Inn Rd Clarion, PA 16214 Phone # (814) 226-8850

Microtel

121 North Point Drive

Clarion, PA 16214

Phone # (814) 227-2223

Microtel

121 North Point Drive Clarion, PA 16214 Phone # (814) 227-2223

Hampton Inn and Suites

4 Hospital Drive

Clarion, PA 16214

Phone # (814) 226-4444

Hampton Inn & Suites

4 Hospital Drive Clarion, PA 16214 Phone # (814) 226-4444

Comfort Inn

129 Dolby Street

Clarion, PA 16214

Phone # (814) 226-5230

Comfort Inn

129 Dolby Street Clarion, PA 16214 Phone # (814) 226-5230

Quality Inn

24 United Drive

Clarion, PA 16214 

Phone # (814) 226-8682 


Quality Inn

24 United Drive Clarion, PA 16214 Phone # (814) 226-8682

Holiday Inn Express

325 Perkins Road

Clarion, PA 16214

Phone (814) 223-4010


Holiday Inn Express

325 Perkins Road Clarion, PA 16214 Phone (814) 223-4010

Super 8 Motel

135 Hotel Road

Clarion, PA 16214

Phone # (800) 536-9326

Super 8 Motel

135 Hotel Road Clarion, PA 16214 Phone # (800) 536-9326


Transportation.

Enterprise

545 South Fifth Avenue

Clarion, PA 16214

Phone # (814) 227-1284

Enterprise

545 South Fifth Avenue Clarion, PA 16214 Phone # (814) 227-1284

Clarion County Taxi, Inc.

East End Road

Clarion County Taxi, Inc.

Shippenville, PA 16254

Phone # (814) 226-8635

 *cash, check, debit


Choice Cab Co.

Clarion, PA 16214

Phone # (814) 221- 4992

 *cash only